sensor_id;sensor_type;location;lat;lon;timestamp;temperature;humidity
76537;DHT22;65381;51.254;15.592;2023-10-09T00:00:15;8.40;59.80
76537;DHT22;65381;51.254;15.592;2023-10-09T00:03:41;8.40;59.80
76537;DHT22;65381;51.254;15.592;2023-10-09T00:06:10;8.50;59.80
76537;DHT22;65381;51.254;15.592;2023-10-09T00:08:41;8.50;59.80
76537;DHT22;65381;51.254;15.592;2023-10-09T00:11:15;8.50;59.80
76537;DHT22;65381;51.254;15.592;2023-10-09T00:13:43;8.60;59.80
76537;DHT22;65381;51.254;15.592;2023-10-09T00:16:20;8.60;59.90
76537;DHT22;65381;51.254;15.592;2023-10-09T00:19:02;8.60;60.00
76537;DHT22;65381;51.254;15.592;2023-10-09T00:21:48;8.60;60.00
76537;DHT22;65381;51.254;15.592;2023-10-09T00:24:16;8.60;60.00
76537;DHT22;65381;51.254;15.592;2023-10-09T00:26:53;8.60;60.00
76537;DHT22;65381;51.254;15.592;2023-10-09T00:29:40;8.70;60.10
76537;DHT22;65381;51.254;15.592;2023-10-09T00:32:16;8.80;60.10
76537;DHT22;65381;51.254;15.592;2023-10-09T00:34:44;8.80;60.00
76537;DHT22;65381;51.254;15.592;2023-10-09T00:37:18;8.80;60.20
76537;DHT22;65381;51.254;15.592;2023-10-09T00:39:54;8.80;60.20
76537;DHT22;65381;51.254;15.592;2023-10-09T00:42:25;8.80;60.20
76537;DHT22;65381;51.254;15.592;2023-10-09T00:44:57;8.80;60.30
76537;DHT22;65381;51.254;15.592;2023-10-09T00:47:32;8.70;60.30
76537;DHT22;65381;51.254;15.592;2023-10-09T00:50:09;8.70;60.40
76537;DHT22;65381;51.254;15.592;2023-10-09T00:52:54;8.60;60.40
76537;DHT22;65381;51.254;15.592;2023-10-09T00:55:37;8.60;60.50
76537;DHT22;65381;51.254;15.592;2023-10-09T00:58:06;8.60;60.40
76537;DHT22;65381;51.254;15.592;2023-10-09T01:00:43;8.60;60.50
76537;DHT22;65381;51.254;15.592;2023-10-09T01:03:15;8.50;60.50
76537;DHT22;65381;51.254;15.592;2023-10-09T01:05:51;8.50;60.50
76537;DHT22;65381;51.254;15.592;2023-10-09T01:08:40;8.40;60.60
76537;DHT22;65381;51.254;15.592;2023-10-09T01:11:14;8.40;60.70
76537;DHT22;65381;51.254;15.592;2023-10-09T01:13:47;8.40;60.70
76537;DHT22;65381;51.254;15.592;2023-10-09T01:16:19;8.40;60.80
76537;DHT22;65381;51.254;15.592;2023-10-09T01:18:54;8.40;60.80
76537;DHT22;65381;51.254;15.592;2023-10-09T01:21:25;8.40;60.90
76537;DHT22;65381;51.254;15.592;2023-10-09T01:23:55;8.40;60.90
76537;DHT22;65381;51.254;15.592;2023-10-09T01:26:36;8.30;61.00
76537;DHT22;65381;51.254;15.592;2023-10-09T01:29:09;8.30;61.10
76537;DHT22;65381;51.254;15.592;2023-10-09T01:31:48;8.20;61.20
76537;DHT22;65381;51.254;15.592;2023-10-09T01:34:29;8.20;61.30
76537;DHT22;65381;51.254;15.592;2023-10-09T01:37:16;8.10;61.40
76537;DHT22;65381;51.254;15.592;2023-10-09T01:39:52;8.10;61.60
76537;DHT22;65381;51.254;15.592;2023-10-09T01:42:21;8.10;61.70
76537;DHT22;65381;51.254;15.592;2023-10-09T01:45:12;8.00;61.80
76537;DHT22;65381;51.254;15.592;2023-10-09T01:47:44;8.00;62.00
76537;DHT22;65381;51.254;15.592;2023-10-09T01:50:33;8.00;62.10
76537;DHT22;65381;51.254;15.592;2023-10-09T01:53:03;8.00;62.20
76537;DHT22;65381;51.254;15.592;2023-10-09T01:55:34;8.00;62.20
76537;DHT22;65381;51.254;15.592;2023-10-09T01:58:08;8.00;62.30
76537;DHT22;65381;51.254;15.592;2023-10-09T02:00:45;7.90;62.50
76537;DHT22;65381;51.254;15.592;2023-10-09T02:03:17;8.00;62.60
76537;DHT22;65381;51.254;15.592;2023-10-09T02:05:46;8.00;62.60
76537;DHT22;65381;51.254;15.592;2023-10-09T02:08:14;8.00;62.70
76537;DHT22;65381;51.254;15.592;2023-10-09T02:10:44;8.00;62.70
76537;DHT22;65381;51.254;15.592;2023-10-09T02:13:16;8.00;62.70
76537;DHT22;65381;51.254;15.592;2023-10-09T02:15:45;8.00;62.70
76537;DHT22;65381;51.254;15.592;2023-10-09T02:18:20;8.00;62.80
76537;DHT22;65381;51.254;15.592;2023-10-09T02:23:31;8.00;63.00
76537;DHT22;65381;51.254;15.592;2023-10-09T02:26:19;7.90;63.20
76537;DHT22;65381;51.254;15.592;2023-10-09T02:28:55;7.80;63.30
76537;DHT22;65381;51.254;15.592;2023-10-09T02:31:28;7.80;63.30
76537;DHT22;65381;51.254;15.592;2023-10-09T02:34:04;7.80;63.40
76537;DHT22;65381;51.254;15.592;2023-10-09T02:36:39;7.80;63.50
76537;DHT22;65381;51.254;15.592;2023-10-09T02:39:10;7.80;63.60
76537;DHT22;65381;51.254;15.592;2023-10-09T02:41:56;7.80;63.60
76537;DHT22;65381;51.254;15.592;2023-10-09T02:44:42;7.80;63.60
76537;DHT22;65381;51.254;15.592;2023-10-09T02:47:19;7.80;63.70
76537;DHT22;65381;51.254;15.592;2023-10-09T02:50:07;7.80;63.80
76537;DHT22;65381;51.254;15.592;2023-10-09T02:52:47;7.80;63.80
76537;DHT22;65381;51.254;15.592;2023-10-09T02:55:27;7.80;63.70
76537;DHT22;65381;51.254;15.592;2023-10-09T02:57:56;7.80;63.80
76537;DHT22;65381;51.254;15.592;2023-10-09T03:00:32;7.80;63.90
76537;DHT22;65381;51.254;15.592;2023-10-09T03:03:04;7.80;64.00
76537;DHT22;65381;51.254;15.592;2023-10-09T03:05:35;7.80;64.00
76537;DHT22;65381;51.254;15.592;2023-10-09T03:08:06;7.70;64.20
76537;DHT22;65381;51.254;15.592;2023-10-09T03:10:36;7.60;64.20
76537;DHT22;65381;51.254;15.592;2023-10-09T03:13:04;7.60;64.20
76537;DHT22;65381;51.254;15.592;2023-10-09T03:15:32;7.60;64.30
76537;DHT22;65381;51.254;15.592;2023-10-09T03:18:04;7.60;64.40
76537;DHT22;65381;51.254;15.592;2023-10-09T03:20:35;7.60;64.50
76537;DHT22;65381;51.254;15.592;2023-10-09T03:23:03;7.60;64.50
76537;DHT22;65381;51.254;15.592;2023-10-09T03:25:31;7.60;64.70
76537;DHT22;65381;51.254;15.592;2023-10-09T03:27:59;7.60;64.70
76537;DHT22;65381;51.254;15.592;2023-10-09T03:30:28;7.60;64.80
76537;DHT22;65381;51.254;15.592;2023-10-09T03:33:00;7.60;65.30
76537;DHT22;65381;51.254;15.592;2023-10-09T03:35:30;7.50;65.50
76537;DHT22;65381;51.254;15.592;2023-10-09T03:38:02;7.50;65.70
76537;DHT22;65381;51.254;15.592;2023-10-09T03:40:42;7.50;66.10
76537;DHT22;65381;51.254;15.592;2023-10-09T03:43:10;7.50;66.90
76537;DHT22;65381;51.254;15.592;2023-10-09T03:45:39;7.50;66.70
76537;DHT22;65381;51.254;15.592;2023-10-09T03:48:13;7.50;67.00
76537;DHT22;65381;51.254;15.592;2023-10-09T03:50:49;7.50;67.30
76537;DHT22;65381;51.254;15.592;2023-10-09T03:53:23;7.50;67.40
76537;DHT22;65381;51.254;15.592;2023-10-09T03:55:51;7.50;67.70
76537;DHT22;65381;51.254;15.592;2023-10-09T03:58:19;7.50;67.80
76537;DHT22;65381;51.254;15.592;2023-10-09T04:00:47;7.60;68.00
76537;DHT22;65381;51.254;15.592;2023-10-09T04:03:17;7.60;68.10
76537;DHT22;65381;51.254;15.592;2023-10-09T04:05:45;7.60;68.40
76537;DHT22;65381;51.254;15.592;2023-10-09T04:08:13;7.60;68.60
76537;DHT22;65381;51.254;15.592;2023-10-09T04:10:44;7.60;68.90
76537;DHT22;65381;51.254;15.592;2023-10-09T04:13:21;7.60;69.20
76537;DHT22;65381;51.254;15.592;2023-10-09T04:16:04;7.60;69.50
76537;DHT22;65381;51.254;15.592;2023-10-09T04:18:39;7.70;69.80
76537;DHT22;65381;51.254;15.592;2023-10-09T04:21:07;7.70;70.10
76537;DHT22;65381;51.254;15.592;2023-10-09T04:23:55;7.60;70.40
76537;DHT22;65381;51.254;15.592;2023-10-09T04:26:44;7.70;70.80
76537;DHT22;65381;51.254;15.592;2023-10-09T04:29:16;7.70;71.00
76537;DHT22;65381;51.254;15.592;2023-10-09T04:31:57;7.70;71.20
76537;DHT22;65381;51.254;15.592;2023-10-09T04:34:28;7.70;71.60
76537;DHT22;65381;51.254;15.592;2023-10-09T04:36:56;7.80;71.60
76537;DHT22;65381;51.254;15.592;2023-10-09T04:39:28;7.70;71.70
76537;DHT22;65381;51.254;15.592;2023-10-09T04:42:00;7.70;72.00
76537;DHT22;65381;51.254;15.592;2023-10-09T04:44:47;7.70;72.30
76537;DHT22;65381;51.254;15.592;2023-10-09T04:47:34;7.70;72.50
76537;DHT22;65381;51.254;15.592;2023-10-09T04:50:08;7.60;72.70
76537;DHT22;65381;51.254;15.592;2023-10-09T04:52:42;7.60;73.00
76537;DHT22;65381;51.254;15.592;2023-10-09T04:55:10;7.60;73.20
76537;DHT22;65381;51.254;15.592;2023-10-09T04:57:39;7.60;73.40
76537;DHT22;65381;51.254;15.592;2023-10-09T05:00:18;7.60;73.60
76537;DHT22;65381;51.254;15.592;2023-10-09T05:02:57;7.60;73.70
76537;DHT22;65381;51.254;15.592;2023-10-09T05:05:28;7.60;73.80
76537;DHT22;65381;51.254;15.592;2023-10-09T05:08:05;7.50;74.10
76537;DHT22;65381;51.254;15.592;2023-10-09T05:10:53;7.50;74.30
76537;DHT22;65381;51.254;15.592;2023-10-09T05:13:35;7.50;74.40
76537;DHT22;65381;51.254;15.592;2023-10-09T05:16:15;7.50;74.70
76537;DHT22;65381;51.254;15.592;2023-10-09T05:19:03;7.40;74.70
76537;DHT22;65381;51.254;15.592;2023-10-09T05:21:39;7.40;75.20
76537;DHT22;65381;51.254;15.592;2023-10-09T05:24:11;7.20;75.00
76537;DHT22;65381;51.254;15.592;2023-10-09T05:26:42;7.20;75.30
76537;DHT22;65381;51.254;15.592;2023-10-09T05:29:15;7.20;75.70
76537;DHT22;65381;51.254;15.592;2023-10-09T05:32:07;7.20;75.90
76537;DHT22;65381;51.254;15.592;2023-10-09T05:34:44;7.20;76.20
76537;DHT22;65381;51.254;15.592;2023-10-09T05:37:29;7.20;76.20
76537;DHT22;65381;51.254;15.592;2023-10-09T05:40:03;7.20;76.50
76537;DHT22;65381;51.254;15.592;2023-10-09T05:42:38;7.20;76.50
76537;DHT22;65381;51.254;15.592;2023-10-09T05:45:11;7.20;76.70
76537;DHT22;65381;51.254;15.592;2023-10-09T05:47:53;7.20;76.90
76537;DHT22;65381;51.254;15.592;2023-10-09T05:50:27;7.20;77.00
76537;DHT22;65381;51.254;15.592;2023-10-09T05:52:56;7.20;77.20
76537;DHT22;65381;51.254;15.592;2023-10-09T05:55:25;7.20;77.30
76537;DHT22;65381;51.254;15.592;2023-10-09T05:57:54;7.20;77.50
76537;DHT22;65381;51.254;15.592;2023-10-09T06:00:23;7.30;77.60
76537;DHT22;65381;51.254;15.592;2023-10-09T06:03:10;7.30;77.70
76537;DHT22;65381;51.254;15.592;2023-10-09T06:08:30;7.30;77.80
76537;DHT22;65381;51.254;15.592;2023-10-09T06:11:10;7.30;77.90
76537;DHT22;65381;51.254;15.592;2023-10-09T06:13:59;7.30;78.30
76537;DHT22;65381;51.254;15.592;2023-10-09T06:16:31;7.30;78.00
76537;DHT22;65381;51.254;15.592;2023-10-09T06:19:20;7.30;78.10
76537;DHT22;65381;51.254;15.592;2023-10-09T06:21:50;7.30;78.30
76537;DHT22;65381;51.254;15.592;2023-10-09T06:24:38;7.30;78.30
76537;DHT22;65381;51.254;15.592;2023-10-09T06:27:38;7.30;78.30
76537;DHT22;65381;51.254;15.592;2023-10-09T06:30:21;7.30;78.40
76537;DHT22;65381;51.254;15.592;2023-10-09T06:32:53;7.30;78.60
76537;DHT22;65381;51.254;15.592;2023-10-09T06:35:48;7.40;78.70
76537;DHT22;65381;51.254;15.592;2023-10-09T06:38:21;7.40;78.70
76537;DHT22;65381;51.254;15.592;2023-10-09T06:41:01;7.40;79.00
76537;DHT22;65381;51.254;15.592;2023-10-09T06:43:32;7.40;79.20
76537;DHT22;65381;51.254;15.592;2023-10-09T06:46:04;7.40;79.20
76537;DHT22;65381;51.254;15.592;2023-10-09T06:48:50;7.40;79.30
76537;DHT22;65381;51.254;15.592;2023-10-09T06:51:24;7.40;79.30
76537;DHT22;65381;51.254;15.592;2023-10-09T06:53:55;7.40;79.50
76537;DHT22;65381;51.254;15.592;2023-10-09T06:56:26;7.40;79.80
76537;DHT22;65381;51.254;15.592;2023-10-09T06:59:02;7.40;79.80
76537;DHT22;65381;51.254;15.592;2023-10-09T07:01:43;7.40;80.00
76537;DHT22;65381;51.254;15.592;2023-10-09T07:04:13;7.50;80.20
76537;DHT22;65381;51.254;15.592;2023-10-09T07:07:08;7.50;80.30
76537;DHT22;65381;51.254;15.592;2023-10-09T07:09:40;7.50;80.40
76537;DHT22;65381;51.254;15.592;2023-10-09T07:12:34;7.50;80.30
76537;DHT22;65381;51.254;15.592;2023-10-09T07:15:10;7.50;80.50
76537;DHT22;65381;51.254;15.592;2023-10-09T07:17:39;7.50;80.70
76537;DHT22;65381;51.254;15.592;2023-10-09T07:20:08;7.50;80.90
76537;DHT22;65381;51.254;15.592;2023-10-09T07:22:38;7.50;81.10
76537;DHT22;65381;51.254;15.592;2023-10-09T07:25:24;7.50;81.00
76537;DHT22;65381;51.254;15.592;2023-10-09T07:28:23;7.40;81.00
76537;DHT22;65381;51.254;15.592;2023-10-09T07:31:04;7.40;81.00
76537;DHT22;65381;51.254;15.592;2023-10-09T07:33:38;7.40;81.30
76537;DHT22;65381;51.254;15.592;2023-10-09T07:36:25;7.30;81.40
76537;DHT22;65381;51.254;15.592;2023-10-09T07:39:06;7.30;81.60
76537;DHT22;65381;51.254;15.592;2023-10-09T07:41:45;7.30;81.70
76537;DHT22;65381;51.254;15.592;2023-10-09T07:44:23;7.30;81.90
76537;DHT22;65381;51.254;15.592;2023-10-09T07:47:06;7.20;82.00
76537;DHT22;65381;51.254;15.592;2023-10-09T07:49:53;7.20;82.10
76537;DHT22;65381;51.254;15.592;2023-10-09T07:52:21;7.20;82.40
76537;DHT22;65381;51.254;15.592;2023-10-09T07:54:50;7.20;82.40
76537;DHT22;65381;51.254;15.592;2023-10-09T07:57:21;7.20;82.40
76537;DHT22;65381;51.254;15.592;2023-10-09T07:59:59;7.20;82.50
76537;DHT22;65381;51.254;15.592;2023-10-09T08:02:40;7.20;82.60
76537;DHT22;65381;51.254;15.592;2023-10-09T08:05:09;7.20;82.80
76537;DHT22;65381;51.254;15.592;2023-10-09T08:07:50;7.20;82.80
76537;DHT22;65381;51.254;15.592;2023-10-09T08:11:08;7.30;83.00
76537;DHT22;65381;51.254;15.592;2023-10-09T08:13:54;7.40;83.20
76537;DHT22;65381;51.254;15.592;2023-10-09T08:16:28;7.40;83.40
76537;DHT22;65381;51.254;15.592;2023-10-09T08:19:05;7.50;83.50
76537;DHT22;65381;51.254;15.592;2023-10-09T08:22:08;7.50;83.60
76537;DHT22;65381;51.254;15.592;2023-10-09T08:25:05;7.50;83.70
76537;DHT22;65381;51.254;15.592;2023-10-09T08:27:35;7.60;83.90
76537;DHT22;65381;51.254;15.592;2023-10-09T08:30:04;7.60;84.00
76537;DHT22;65381;51.254;15.592;2023-10-09T08:32:53;7.70;83.90
76537;DHT22;65381;51.254;15.592;2023-10-09T08:35:35;7.70;84.10
76537;DHT22;65381;51.254;15.592;2023-10-09T08:38:17;7.80;84.10
76537;DHT22;65381;51.254;15.592;2023-10-09T08:40:52;7.80;84.20
76537;DHT22;65381;51.254;15.592;2023-10-09T08:43:28;7.80;84.30
76537;DHT22;65381;51.254;15.592;2023-10-09T08:46:00;7.80;84.10
76537;DHT22;65381;51.254;15.592;2023-10-09T08:48:30;7.80;84.20
76537;DHT22;65381;51.254;15.592;2023-10-09T08:50:58;7.80;84.20
76537;DHT22;65381;51.254;15.592;2023-10-09T08:53:27;7.80;84.30
76537;DHT22;65381;51.254;15.592;2023-10-09T08:55:55;7.80;84.40
76537;DHT22;65381;51.254;15.592;2023-10-09T08:58:24;7.80;84.60
76537;DHT22;65381;51.254;15.592;2023-10-09T09:00:54;7.80;84.80
76537;DHT22;65381;51.254;15.592;2023-10-09T09:03:23;8.00;84.80
76537;DHT22;65381;51.254;15.592;2023-10-09T09:06:01;8.00;84.70
76537;DHT22;65381;51.254;15.592;2023-10-09T09:08:31;8.00;84.70
76537;DHT22;65381;51.254;15.592;2023-10-09T09:11:02;8.10;84.80
76537;DHT22;65381;51.254;15.592;2023-10-09T09:13:44;8.10;84.80
76537;DHT22;65381;51.254;15.592;2023-10-09T09:16:22;8.20;84.70
76537;DHT22;65381;51.254;15.592;2023-10-09T09:21:28;8.20;84.70
76537;DHT22;65381;51.254;15.592;2023-10-09T09:24:00;8.20;84.90
76537;DHT22;65381;51.254;15.592;2023-10-09T09:26:39;8.20;84.80
76537;DHT22;65381;51.254;15.592;2023-10-09T09:29:13;8.20;84.90
76537;DHT22;65381;51.254;15.592;2023-10-09T09:31:55;8.20;85.00
76537;DHT22;65381;51.254;15.592;2023-10-09T09:34:25;8.30;85.10
76537;DHT22;65381;51.254;15.592;2023-10-09T09:36:57;8.30;85.00
76537;DHT22;65381;51.254;15.592;2023-10-09T09:39:27;8.30;85.10
76537;DHT22;65381;51.254;15.592;2023-10-09T09:42:05;8.30;85.10
76537;DHT22;65381;51.254;15.592;2023-10-09T09:44:42;8.40;85.00
76537;DHT22;65381;51.254;15.592;2023-10-09T09:47:14;8.40;84.80
76537;DHT22;65381;51.254;15.592;2023-10-09T09:50:06;8.40;84.80
76537;DHT22;65381;51.254;15.592;2023-10-09T09:52:52;8.40;84.80
76537;DHT22;65381;51.254;15.592;2023-10-09T09:55:28;8.40;84.90
76537;DHT22;65381;51.254;15.592;2023-10-09T09:58:02;8.40;85.00
76537;DHT22;65381;51.254;15.592;2023-10-09T10:00:37;8.40;85.00
76537;DHT22;65381;51.254;15.592;2023-10-09T10:03:15;8.40;85.00
76537;DHT22;65381;51.254;15.592;2023-10-09T10:05:46;8.40;85.00
76537;DHT22;65381;51.254;15.592;2023-10-09T10:08:20;8.50;85.20
76537;DHT22;65381;51.254;15.592;2023-10-09T10:10:49;8.60;85.20
76537;DHT22;65381;51.254;15.592;2023-10-09T10:16:13;8.60;84.90
76537;DHT22;65381;51.254;15.592;2023-10-09T10:18:59;8.60;85.00
76537;DHT22;65381;51.254;15.592;2023-10-09T10:21:39;8.60;85.20
76537;DHT22;65381;51.254;15.592;2023-10-09T10:27:21;8.60;84.80
76537;DHT22;65381;51.254;15.592;2023-10-09T10:32:58;8.60;85.00
76537;DHT22;65381;51.254;15.592;2023-10-09T10:35:37;8.60;85.00
76537;DHT22;65381;51.254;15.592;2023-10-09T10:38:27;8.70;85.00
76537;DHT22;65381;51.254;15.592;2023-10-09T10:41:17;8.80;85.20
76537;DHT22;65381;51.254;15.592;2023-10-09T10:43:46;8.80;85.20
76537;DHT22;65381;51.254;15.592;2023-10-09T10:46:22;8.90;85.20
76537;DHT22;65381;51.254;15.592;2023-10-09T10:49:07;8.90;84.90
76537;DHT22;65381;51.254;15.592;2023-10-09T10:52:05;8.90;85.00
76537;DHT22;65381;51.254;15.592;2023-10-09T10:55:07;8.80;84.90
76537;DHT22;65381;51.254;15.592;2023-10-09T10:57:45;8.80;85.00
76537;DHT22;65381;51.254;15.592;2023-10-09T11:00:30;8.90;85.50
76537;DHT22;65381;51.254;15.592;2023-10-09T11:03:18;8.90;85.10
76537;DHT22;65381;51.254;15.592;2023-10-09T11:06:01;8.90;85.00
76537;DHT22;65381;51.254;15.592;2023-10-09T11:08:46;8.90;85.10
76537;DHT22;65381;51.254;15.592;2023-10-09T11:11:26;8.90;85.20
76537;DHT22;65381;51.254;15.592;2023-10-09T11:14:09;9.00;85.50
76537;DHT22;65381;51.254;15.592;2023-10-09T11:16:43;9.00;85.60
76537;DHT22;65381;51.254;15.592;2023-10-09T11:19:21;9.10;85.70
76537;DHT22;65381;51.254;15.592;2023-10-09T11:21:56;9.20;85.60
76537;DHT22;65381;51.254;15.592;2023-10-09T11:24:34;9.20;85.60
76537;DHT22;65381;51.254;15.592;2023-10-09T11:27:05;9.20;85.50
76537;DHT22;65381;51.254;15.592;2023-10-09T11:29:35;9.20;85.30
76537;DHT22;65381;51.254;15.592;2023-10-09T11:32:17;9.20;85.50
76537;DHT22;65381;51.254;15.592;2023-10-09T11:34:46;9.40;85.70
76537;DHT22;65381;51.254;15.592;2023-10-09T11:37:24;9.40;85.50
76537;DHT22;65381;51.254;15.592;2023-10-09T11:39:59;9.40;85.60
76537;DHT22;65381;51.254;15.592;2023-10-09T11:42:29;9.40;85.50
76537;DHT22;65381;51.254;15.592;2023-10-09T11:45:24;9.40;85.90
76537;DHT22;65381;51.254;15.592;2023-10-09T11:47:58;9.50;85.70
76537;DHT22;65381;51.254;15.592;2023-10-09T11:50:52;9.60;85.40
76537;DHT22;65381;51.254;15.592;2023-10-09T11:53:42;9.50;85.20
76537;DHT22;65381;51.254;15.592;2023-10-09T11:56:22;9.50;85.50
76537;DHT22;65381;51.254;15.592;2023-10-09T11:58:52;9.50;85.30
76537;DHT22;65381;51.254;15.592;2023-10-09T12:01:21;9.50;85.30
76537;DHT22;65381;51.254;15.592;2023-10-09T12:03:50;9.60;85.40
76537;DHT22;65381;51.254;15.592;2023-10-09T12:06:20;9.60;85.30
76537;DHT22;65381;51.254;15.592;2023-10-09T12:08:51;9.60;85.50
76537;DHT22;65381;51.254;15.592;2023-10-09T12:11:18;9.70;85.70
76537;DHT22;65381;51.254;15.592;2023-10-09T12:13:51;9.80;85.60
76537;DHT22;65381;51.254;15.592;2023-10-09T12:16:25;9.80;85.20
76537;DHT22;65381;51.254;15.592;2023-10-09T12:18:57;9.70;84.90
76537;DHT22;65381;51.254;15.592;2023-10-09T12:21:25;9.70;85.20
76537;DHT22;65381;51.254;15.592;2023-10-09T12:23:56;9.60;85.00
76537;DHT22;65381;51.254;15.592;2023-10-09T12:26:29;9.50;84.80
76537;DHT22;65381;51.254;15.592;2023-10-09T12:29:03;9.40;85.20
76537;DHT22;65381;51.254;15.592;2023-10-09T12:31:31;9.40;85.30
76537;DHT22;65381;51.254;15.592;2023-10-09T12:34:02;9.40;85.40
76537;DHT22;65381;51.254;15.592;2023-10-09T12:36:30;9.40;85.50
76537;DHT22;65381;51.254;15.592;2023-10-09T12:39:05;9.40;85.20
76537;DHT22;65381;51.254;15.592;2023-10-09T12:41:33;9.30;85.30
76537;DHT22;65381;51.254;15.592;2023-10-09T12:44:03;9.30;85.40
76537;DHT22;65381;51.254;15.592;2023-10-09T12:46:32;9.30;85.40
76537;DHT22;65381;51.254;15.592;2023-10-09T12:49:06;9.20;85.30
76537;DHT22;65381;51.254;15.592;2023-10-09T12:51:47;9.30;85.20
76537;DHT22;65381;51.254;15.592;2023-10-09T12:54:15;9.30;85.50
76537;DHT22;65381;51.254;15.592;2023-10-09T12:56:43;9.40;85.70
76537;DHT22;65381;51.254;15.592;2023-10-09T12:59:16;9.40;85.80
76537;DHT22;65381;51.254;15.592;2023-10-09T13:01:46;9.40;85.80
76537;DHT22;65381;51.254;15.592;2023-10-09T13:04:20;9.50;85.90
76537;DHT22;65381;51.254;15.592;2023-10-09T13:06:50;9.50;85.90
76537;DHT22;65381;51.254;15.592;2023-10-09T13:09:22;9.60;85.70
76537;DHT22;65381;51.254;15.592;2023-10-09T13:12:01;9.50;85.10
76537;DHT22;65381;51.254;15.592;2023-10-09T13:14:32;9.40;85.00
76537;DHT22;65381;51.254;15.592;2023-10-09T13:17:02;9.40;85.10
76537;DHT22;65381;51.254;15.592;2023-10-09T13:19:38;9.20;85.30
76537;DHT22;65381;51.254;15.592;2023-10-09T13:22:05;9.30;85.50
76537;DHT22;65381;51.254;15.592;2023-10-09T13:24:41;9.30;85.60
76537;DHT22;65381;51.254;15.592;2023-10-09T13:27:09;9.40;85.80
76537;DHT22;65381;51.254;15.592;2023-10-09T13:29:38;9.40;85.90
76537;DHT22;65381;51.254;15.592;2023-10-09T13:32:09;9.50;85.60
76537;DHT22;65381;51.254;15.592;2023-10-09T13:34:43;9.50;85.60
76537;DHT22;65381;51.254;15.592;2023-10-09T13:37:14;9.50;85.50
76537;DHT22;65381;51.254;15.592;2023-10-09T13:39:48;9.60;85.50
76537;DHT22;65381;51.254;15.592;2023-10-09T13:42:23;9.60;85.70
76537;DHT22;65381;51.254;15.592;2023-10-09T13:44:53;9.70;86.10
76537;DHT22;65381;51.254;15.592;2023-10-09T13:47:21;9.80;86.00
76537;DHT22;65381;51.254;15.592;2023-10-09T13:49:53;9.90;85.90
76537;DHT22;65381;51.254;15.592;2023-10-09T13:52:21;10.00;85.70
76537;DHT22;65381;51.254;15.592;2023-10-09T13:54:50;10.00;85.70
76537;DHT22;65381;51.254;15.592;2023-10-09T13:57:18;10.00;85.50
76537;DHT22;65381;51.254;15.592;2023-10-09T13:59:50;10.00;85.30
76537;DHT22;65381;51.254;15.592;2023-10-09T14:02:18;10.00;85.10
76537;DHT22;65381;51.254;15.592;2023-10-09T14:04:49;9.80;85.30
76537;DHT22;65381;51.254;15.592;2023-10-09T14:07:17;9.90;85.50
76537;DHT22;65381;51.254;15.592;2023-10-09T14:09:48;9.80;85.50
76537;DHT22;65381;51.254;15.592;2023-10-09T14:12:35;9.80;85.50
76537;DHT22;65381;51.254;15.592;2023-10-09T14:15:08;9.80;85.30
76537;DHT22;65381;51.254;15.592;2023-10-09T14:17:45;9.70;85.00
76537;DHT22;65381;51.254;15.592;2023-10-09T14:20:14;9.60;85.40
76537;DHT22;65381;51.254;15.592;2023-10-09T14:23:00;9.60;85.70
76537;DHT22;65381;51.254;15.592;2023-10-09T14:25:36;9.70;85.70
76537;DHT22;65381;51.254;15.592;2023-10-09T14:28:08;9.70;85.70
76537;DHT22;65381;51.254;15.592;2023-10-09T14:30:37;9.70;85.70
76537;DHT22;65381;51.254;15.592;2023-10-09T14:33:11;9.70;85.60
76537;DHT22;65381;51.254;15.592;2023-10-09T14:35:44;9.70;85.80
76537;DHT22;65381;51.254;15.592;2023-10-09T14:38:12;9.70;85.70
76537;DHT22;65381;51.254;15.592;2023-10-09T14:40:42;9.80;86.10
76537;DHT22;65381;51.254;15.592;2023-10-09T14:43:10;9.90;86.00
76537;DHT22;65381;51.254;15.592;2023-10-09T14:45:49;10.00;86.00
76537;DHT22;65381;51.254;15.592;2023-10-09T14:48:21;10.00;86.00
76537;DHT22;65381;51.254;15.592;2023-10-09T14:50:57;10.10;86.10
76537;DHT22;65381;51.254;15.592;2023-10-09T14:53:33;10.20;86.10
76537;DHT22;65381;51.254;15.592;2023-10-09T14:56:02;10.30;85.90
76537;DHT22;65381;51.254;15.592;2023-10-09T14:58:37;10.40;85.80
76537;DHT22;65381;51.254;15.592;2023-10-09T15:01:08;10.40;85.60
76537;DHT22;65381;51.254;15.592;2023-10-09T15:03:43;10.50;85.70
76537;DHT22;65381;51.254;15.592;2023-10-09T15:06:11;10.50;85.50
76537;DHT22;65381;51.254;15.592;2023-10-09T15:08:39;10.50;85.30
76537;DHT22;65381;51.254;15.592;2023-10-09T15:11:08;10.50;85.20
76537;DHT22;65381;51.254;15.592;2023-10-09T15:13:36;10.50;85.10
76537;DHT22;65381;51.254;15.592;2023-10-09T15:16:07;10.50;85.20
76537;DHT22;65381;51.254;15.592;2023-10-09T15:18:35;10.40;85.20
76537;DHT22;65381;51.254;15.592;2023-10-09T15:21:05;10.40;85.20
76537;DHT22;65381;51.254;15.592;2023-10-09T15:23:34;10.50;85.10
76537;DHT22;65381;51.254;15.592;2023-10-09T15:26:04;10.40;84.80
76537;DHT22;65381;51.254;15.592;2023-10-09T15:28:34;10.30;84.60
76537;DHT22;65381;51.254;15.592;2023-10-09T15:31:07;10.30;84.70
76537;DHT22;65381;51.254;15.592;2023-10-09T15:33:39;10.20;84.70
76537;DHT22;65381;51.254;15.592;2023-10-09T15:36:15;10.20;84.70
76537;DHT22;65381;51.254;15.592;2023-10-09T15:38:48;10.10;84.60
76537;DHT22;65381;51.254;15.592;2023-10-09T15:41:17;10.10;84.70
76537;DHT22;65381;51.254;15.592;2023-10-09T15:43:49;10.00;84.60
76537;DHT22;65381;51.254;15.592;2023-10-09T15:46:17;10.00;84.60
76537;DHT22;65381;51.254;15.592;2023-10-09T15:48:45;10.00;84.70
76537;DHT22;65381;51.254;15.592;2023-10-09T15:51:16;10.00;84.70
76537;DHT22;65381;51.254;15.592;2023-10-09T15:53:44;9.90;84.60
76537;DHT22;65381;51.254;15.592;2023-10-09T15:56:13;9.90;84.70
76537;DHT22;65381;51.254;15.592;2023-10-09T15:58:42;10.00;84.70
76537;DHT22;65381;51.254;15.592;2023-10-09T16:01:11;10.00;84.60
76537;DHT22;65381;51.254;15.592;2023-10-09T16:03:41;9.90;84.60
76537;DHT22;65381;51.254;15.592;2023-10-09T16:06:10;9.80;84.70
76537;DHT22;65381;51.254;15.592;2023-10-09T16:08:45;9.80;84.70
76537;DHT22;65381;51.254;15.592;2023-10-09T16:11:18;9.80;84.50
76537;DHT22;65381;51.254;15.592;2023-10-09T16:13:46;9.70;84.60
76537;DHT22;65381;51.254;15.592;2023-10-09T16:16:14;9.70;84.60
76537;DHT22;65381;51.254;15.592;2023-10-09T16:18:42;9.70;84.60
76537;DHT22;65381;51.254;15.592;2023-10-09T16:21:11;9.60;84.60
76537;DHT22;65381;51.254;15.592;2023-10-09T16:23:40;9.70;84.70
76537;DHT22;65381;51.254;15.592;2023-10-09T16:26:10;9.60;84.70
76537;DHT22;65381;51.254;15.592;2023-10-09T16:28:38;9.70;84.80
76537;DHT22;65381;51.254;15.592;2023-10-09T16:31:08;9.70;84.70
76537;DHT22;65381;51.254;15.592;2023-10-09T16:33:41;9.70;84.50
76537;DHT22;65381;51.254;15.592;2023-10-09T16:36:10;9.70;84.50